sensor_id;sensor_type;location;lat;lon;timestamp;temperature;humidity
15131;DHT22;7666;50.920;4.628;2022-08-19T05:35:43;19.80;99.90
15131;DHT22;7666;50.920;4.628;2022-08-19T05:38:29;19.90;99.90
15131;DHT22;7666;50.920;4.628;2022-08-19T05:41:15;20.20;99.90
15131;DHT22;7666;50.920;4.628;2022-08-19T05:44:04;20.40;99.90
15131;DHT22;7666;50.920;4.628;2022-08-19T05:46:54;20.70;99.90
15131;DHT22;7666;50.920;4.628;2022-08-19T05:49:42;20.90;99.90
15131;DHT22;7666;50.920;4.628;2022-08-19T05:52:28;21.00;99.90
15131;DHT22;7666;50.920;4.628;2022-08-19T05:55:14;21.30;99.90
15131;DHT22;7666;50.920;4.628;2022-08-19T05:58:00;21.70;99.90
15131;DHT22;7666;50.920;4.628;2022-08-19T06:00:47;22.50;99.90
15131;DHT22;7666;50.920;4.628;2022-08-19T06:03:33;23.10;99.90
15131;DHT22;7666;50.920;4.628;2022-08-19T06:06:20;23.70;99.90
15131;DHT22;7666;50.920;4.628;2022-08-19T06:09:07;24.30;99.90
15131;DHT22;7666;50.920;4.628;2022-08-19T06:11:56;24.50;99.90
15131;DHT22;7666;50.920;4.628;2022-08-19T06:14:44;24.00;99.90
15131;DHT22;7666;50.920;4.628;2022-08-19T06:17:30;23.50;99.90
15131;DHT22;7666;50.920;4.628;2022-08-19T06:20:16;23.50;99.90
15131;DHT22;7666;50.920;4.628;2022-08-19T06:23:03;23.40;99.90
15131;DHT22;7666;50.920;4.628;2022-08-19T06:25:49;23.30;99.90
15131;DHT22;7666;50.920;4.628;2022-08-19T06:28:35;23.40;99.90
15131;DHT22;7666;50.920;4.628;2022-08-19T06:31:24;24.00;99.90
15131;DHT22;7666;50.920;4.628;2022-08-19T06:34:10;25.20;99.90
15131;DHT22;7666;50.920;4.628;2022-08-19T06:36:58;25.40;99.90
15131;DHT22;7666;50.920;4.628;2022-08-19T06:39:47;25.40;99.90
15131;DHT22;7666;50.920;4.628;2022-08-19T06:42:33;25.20;99.90
15131;DHT22;7666;50.920;4.628;2022-08-19T06:45:20;25.00;99.90
15131;DHT22;7666;50.920;4.628;2022-08-19T06:48:06;24.90;99.90
15131;DHT22;7666;50.920;4.628;2022-08-19T06:50:52;24.50;99.90
15131;DHT22;7666;50.920;4.628;2022-08-19T06:53:38;24.00;99.90
15131;DHT22;7666;50.920;4.628;2022-08-19T06:56:27;23.90;99.90
15131;DHT22;7666;50.920;4.628;2022-08-19T06:59:22;24.70;99.90
15131;DHT22;7666;50.920;4.628;2022-08-19T07:02:08;25.80;99.90
15131;DHT22;7666;50.920;4.628;2022-08-19T07:04:54;26.70;99.90
15131;DHT22;7666;50.920;4.628;2022-08-19T07:07:43;27.40;99.90
15131;DHT22;7666;50.920;4.628;2022-08-19T07:10:29;28.00;99.90
15131;DHT22;7666;50.920;4.628;2022-08-19T07:13:17;28.40;99.90
15131;DHT22;7666;50.920;4.628;2022-08-19T07:16:08;28.40;99.90
15131;DHT22;7666;50.920;4.628;2022-08-19T07:18:54;28.70;99.90
15131;DHT22;7666;50.920;4.628;2022-08-19T07:21:41;29.10;99.90
15131;DHT22;7666;50.920;4.628;2022-08-19T07:24:28;29.00;99.90
15131;DHT22;7666;50.920;4.628;2022-08-19T07:27:14;28.60;99.90
15131;DHT22;7666;50.920;4.628;2022-08-19T07:30:00;28.50;99.90
15131;DHT22;7666;50.920;4.628;2022-08-19T07:32:46;27.90;99.90
15131;DHT22;7666;50.920;4.628;2022-08-19T07:35:32;27.10;99.90
15131;DHT22;7666;50.920;4.628;2022-08-19T07:38:19;26.20;99.90
15131;DHT22;7666;50.920;4.628;2022-08-19T07:41:07;25.70;99.90
15131;DHT22;7666;50.920;4.628;2022-08-19T07:43:54;25.50;99.90
15131;DHT22;7666;50.920;4.628;2022-08-19T07:46:44;25.40;99.90
15131;DHT22;7666;50.920;4.628;2022-08-19T07:49:30;25.50;99.90
15131;DHT22;7666;50.920;4.628;2022-08-19T07:52:17;25.60;99.90
15131;DHT22;7666;50.920;4.628;2022-08-19T07:55:04;25.70;99.90
15131;DHT22;7666;50.920;4.628;2022-08-19T07:57:50;25.60;99.90
15131;DHT22;7666;50.920;4.628;2022-08-19T08:00:38;25.70;99.90
15131;DHT22;7666;50.920;4.628;2022-08-19T08:03:25;25.50;99.90
15131;DHT22;7666;50.920;4.628;2022-08-19T08:06:30;25.00;99.90
15131;DHT22;7666;50.920;4.628;2022-08-19T08:09:38;24.80;99.90
15131;DHT22;7666;50.920;4.628;2022-08-19T08:12:27;24.60;99.90
15131;DHT22;7666;50.920;4.628;2022-08-19T08:15:15;24.50;99.90
15131;DHT22;7666;50.920;4.628;2022-08-19T08:18:04;24.50;99.90
15131;DHT22;7666;50.920;4.628;2022-08-19T08:20:51;24.40;99.90
15131;DHT22;7666;50.920;4.628;2022-08-19T08:23:37;24.60;99.90
15131;DHT22;7666;50.920;4.628;2022-08-19T08:26:24;24.70;99.90
15131;DHT22;7666;50.920;4.628;2022-08-19T08:29:11;24.70;99.90
15131;DHT22;7666;50.920;4.628;2022-08-19T08:31:58;24.80;99.90
15131;DHT22;7666;50.920;4.628;2022-08-19T08:34:44;24.90;99.90
15131;DHT22;7666;50.920;4.628;2022-08-19T08:37:29;25.10;99.90
15131;DHT22;7666;50.920;4.628;2022-08-19T08:46:24;25.00;99.90
15131;DHT22;7666;50.920;4.628;2022-08-19T08:52:28;24.90;99.90
15131;DHT22;7666;50.920;4.628;2022-08-19T08:55:19;24.90;99.90
15131;DHT22;7666;50.920;4.628;2022-08-19T08:58:17;24.90;99.90
15131;DHT22;7666;50.920;4.628;2022-08-19T09:01:05;24.80;99.90
15131;DHT22;7666;50.920;4.628;2022-08-19T09:03:51;24.60;99.90
15131;DHT22;7666;50.920;4.628;2022-08-19T09:09:54;24.10;99.90
15131;DHT22;7666;50.920;4.628;2022-08-19T09:13:08;24.00;99.90
15131;DHT22;7666;50.920;4.628;2022-08-19T09:16:00;23.90;99.90
15131;DHT22;7666;50.920;4.628;2022-08-19T09:18:50;23.90;99.90
15131;DHT22;7666;50.920;4.628;2022-08-19T09:21:38;23.80;99.90
15131;DHT22;7666;50.920;4.628;2022-08-19T09:24:24;23.80;99.90
15131;DHT22;7666;50.920;4.628;2022-08-19T09:27:10;23.60;99.90
15131;DHT22;7666;50.920;4.628;2022-08-19T09:29:56;23.60;99.90
15131;DHT22;7666;50.920;4.628;2022-08-19T09:32:42;23.50;99.90
15131;DHT22;7666;50.920;4.628;2022-08-19T09:35:29;23.60;99.90
15131;DHT22;7666;50.920;4.628;2022-08-19T09:38:15;23.60;99.90
15131;DHT22;7666;50.920;4.628;2022-08-19T09:41:04;23.80;99.90
15131;DHT22;7666;50.920;4.628;2022-08-19T09:43:53;23.80;99.90
15131;DHT22;7666;50.920;4.628;2022-08-19T09:46:41;23.90;99.90
15131;DHT22;7666;50.920;4.628;2022-08-19T09:49:27;24.00;99.90
15131;DHT22;7666;50.920;4.628;2022-08-19T09:52:13;24.00;99.90
15131;DHT22;7666;50.920;4.628;2022-08-19T09:55:01;24.10;99.90
15131;DHT22;7666;50.920;4.628;2022-08-19T09:57:46;24.20;99.90
15131;DHT22;7666;50.920;4.628;2022-08-19T10:00:32;24.40;99.90
15131;DHT22;7666;50.920;4.628;2022-08-19T10:03:19;24.30;99.90
15131;DHT22;7666;50.920;4.628;2022-08-19T10:06:05;24.30;99.90
15131;DHT22;7666;50.920;4.628;2022-08-19T10:08:52;24.30;99.90
15131;DHT22;7666;50.920;4.628;2022-08-19T10:11:43;24.20;99.90
15131;DHT22;7666;50.920;4.628;2022-08-19T10:14:32;24.30;99.90
15131;DHT22;7666;50.920;4.628;2022-08-19T10:17:18;24.20;99.90
15131;DHT22;7666;50.920;4.628;2022-08-19T10:20:05;24.30;99.90
15131;DHT22;7666;50.920;4.628;2022-08-19T10:22:51;24.40;99.90
15131;DHT22;7666;50.920;4.628;2022-08-19T10:25:37;24.60;99.90
15131;DHT22;7666;50.920;4.628;2022-08-19T10:28:23;24.70;99.90
15131;DHT22;7666;50.920;4.628;2022-08-19T10:31:15;24.80;99.90
15131;DHT22;7666;50.920;4.628;2022-08-19T10:34:03;24.80;99.90
15131;DHT22;7666;50.920;4.628;2022-08-19T10:36:49;24.80;99.90
15131;DHT22;7666;50.920;4.628;2022-08-19T10:39:36;24.80;99.90
15131;DHT22;7666;50.920;4.628;2022-08-19T10:42:22;24.90;99.90
15131;DHT22;7666;50.920;4.628;2022-08-19T10:45:08;25.10;99.90
15131;DHT22;7666;50.920;4.628;2022-08-19T10:47:55;25.30;99.90
15131;DHT22;7666;50.920;4.628;2022-08-19T10:50:41;25.40;99.90
15131;DHT22;7666;50.920;4.628;2022-08-19T10:54:03;25.50;99.90
15131;DHT22;7666;50.920;4.628;2022-08-19T10:56:49;25.70;99.90
15131;DHT22;7666;50.920;4.628;2022-08-19T10:59:38;25.60;99.90
15131;DHT22;7666;50.920;4.628;2022-08-19T11:02:24;25.80;99.90
15131;DHT22;7666;50.920;4.628;2022-08-19T11:05:10;26.00;99.90
15131;DHT22;7666;50.920;4.628;2022-08-19T11:08:00;26.20;99.90
15131;DHT22;7666;50.920;4.628;2022-08-19T11:10:46;26.20;99.90
15131;DHT22;7666;50.920;4.628;2022-08-19T11:13:36;26.10;99.90
15131;DHT22;7666;50.920;4.628;2022-08-19T11:16:25;26.00;99.90
15131;DHT22;7666;50.920;4.628;2022-08-19T11:19:13;26.00;99.90
15131;DHT22;7666;50.920;4.628;2022-08-19T11:22:01;25.80;99.90
15131;DHT22;7666;50.920;4.628;2022-08-19T11:24:48;25.70;99.90
15131;DHT22;7666;50.920;4.628;2022-08-19T11:27:40;25.70;99.90
15131;DHT22;7666;50.920;4.628;2022-08-19T11:30:27;25.50;99.90
15131;DHT22;7666;50.920;4.628;2022-08-19T11:33:13;25.30;99.90
15131;DHT22;7666;50.920;4.628;2022-08-19T11:35:59;25.20;99.90
15131;DHT22;7666;50.920;4.628;2022-08-19T11:38:48;25.10;99.90
15131;DHT22;7666;50.920;4.628;2022-08-19T11:41:35;24.80;99.90
15131;DHT22;7666;50.920;4.628;2022-08-19T11:44:21;24.50;99.90
15131;DHT22;7666;50.920;4.628;2022-08-19T11:47:07;24.40;99.90
15131;DHT22;7666;50.920;4.628;2022-08-19T11:49:52;24.40;99.90
15131;DHT22;7666;50.920;4.628;2022-08-19T11:52:39;24.40;99.90
15131;DHT22;7666;50.920;4.628;2022-08-19T11:55:25;24.40;99.90
15131;DHT22;7666;50.920;4.628;2022-08-19T11:58:12;24.30;99.90
15131;DHT22;7666;50.920;4.628;2022-08-19T12:00:58;24.20;99.90
15131;DHT22;7666;50.920;4.628;2022-08-19T12:03:45;24.10;99.90
15131;DHT22;7666;50.920;4.628;2022-08-19T12:06:32;24.20;99.90
15131;DHT22;7666;50.920;4.628;2022-08-19T12:09:19;24.40;99.90
15131;DHT22;7666;50.920;4.628;2022-08-19T12:12:06;24.60;99.90
15131;DHT22;7666;50.920;4.628;2022-08-19T12:14:52;24.80;99.90
15131;DHT22;7666;50.920;4.628;2022-08-19T12:17:42;24.80;99.90
15131;DHT22;7666;50.920;4.628;2022-08-19T12:20:28;25.00;99.90
15131;DHT22;7666;50.920;4.628;2022-08-19T12:23:14;25.20;99.90
15131;DHT22;7666;50.920;4.628;2022-08-19T12:26:00;25.20;99.90
15131;DHT22;7666;50.920;4.628;2022-08-19T12:28:46;25.20;99.90
15131;DHT22;7666;50.920;4.628;2022-08-19T12:31:33;25.20;99.90
15131;DHT22;7666;50.920;4.628;2022-08-19T12:34:20;25.10;99.90
15131;DHT22;7666;50.920;4.628;2022-08-19T12:37:06;25.10;99.90
15131;DHT22;7666;50.920;4.628;2022-08-19T12:39:52;25.20;99.90
15131;DHT22;7666;50.920;4.628;2022-08-19T12:42:39;25.40;99.90
15131;DHT22;7666;50.920;4.628;2022-08-19T12:45:28;25.60;99.90
15131;DHT22;7666;50.920;4.628;2022-08-19T12:48:14;25.90;99.90
15131;DHT22;7666;50.920;4.628;2022-08-19T12:51:00;26.10;99.90
15131;DHT22;7666;50.920;4.628;2022-08-19T12:53:47;26.30;99.90
15131;DHT22;7666;50.920;4.628;2022-08-19T12:56:36;26.60;99.90
15131;DHT22;7666;50.920;4.628;2022-08-19T12:59:22;26.80;99.90
15131;DHT22;7666;50.920;4.628;2022-08-19T13:02:08;27.10;99.90
15131;DHT22;7666;50.920;4.628;2022-08-19T13:04:54;27.50;99.90
15131;DHT22;7666;50.920;4.628;2022-08-19T13:07:41;27.80;99.90
15131;DHT22;7666;50.920;4.628;2022-08-19T13:10:30;28.10;99.90
15131;DHT22;7666;50.920;4.628;2022-08-19T13:13:20;28.00;99.90
15131;DHT22;7666;50.920;4.628;2022-08-19T13:16:06;27.80;99.90
15131;DHT22;7666;50.920;4.628;2022-08-19T13:18:53;27.70;99.90
15131;DHT22;7666;50.920;4.628;2022-08-19T13:21:39;27.50;99.90
15131;DHT22;7666;50.920;4.628;2022-08-19T13:24:25;27.50;99.90
15131;DHT22;7666;50.920;4.628;2022-08-19T13:27:11;27.30;99.90
15131;DHT22;7666;50.920;4.628;2022-08-19T13:29:57;27.20;99.90
15131;DHT22;7666;50.920;4.628;2022-08-19T13:33:02;27.20;99.90
15131;DHT22;7666;50.920;4.628;2022-08-19T13:35:58;26.90;99.90
15131;DHT22;7666;50.920;4.628;2022-08-19T13:38:46;26.50;99.90
15131;DHT22;7666;50.920;4.628;2022-08-19T13:41:32;26.40;99.90
15131;DHT22;7666;50.920;4.628;2022-08-19T13:44:19;26.40;99.90
15131;DHT22;7666;50.920;4.628;2022-08-19T13:47:06;26.50;99.90
15131;DHT22;7666;50.920;4.628;2022-08-19T13:49:52;27.00;99.90
15131;DHT22;7666;50.920;4.628;2022-08-19T13:52:39;27.30;99.90
15131;DHT22;7666;50.920;4.628;2022-08-19T13:55:26;27.40;99.90
15131;DHT22;7666;50.920;4.628;2022-08-19T13:58:12;27.40;99.90
15131;DHT22;7666;50.920;4.628;2022-08-19T14:00:59;27.80;99.90
15131;DHT22;7666;50.920;4.628;2022-08-19T14:03:45;28.00;99.90
15131;DHT22;7666;50.920;4.628;2022-08-19T14:06:31;28.00;99.90
15131;DHT22;7666;50.920;4.628;2022-08-19T14:09:17;27.90;99.90
15131;DHT22;7666;50.920;4.628;2022-08-19T14:12:03;27.70;99.90
15131;DHT22;7666;50.920;4.628;2022-08-19T14:14:50;27.60;99.90
15131;DHT22;7666;50.920;4.628;2022-08-19T14:17:41;27.50;99.90
15131;DHT22;7666;50.920;4.628;2022-08-19T14:20:27;27.40;99.90
15131;DHT22;7666;50.920;4.628;2022-08-19T14:23:13;27.50;99.90
15131;DHT22;7666;50.920;4.628;2022-08-19T14:26:08;27.60;99.90
15131;DHT22;7666;50.920;4.628;2022-08-19T14:28:54;27.80;99.90
15131;DHT22;7666;50.920;4.628;2022-08-19T14:31:43;27.80;99.90
15131;DHT22;7666;50.920;4.628;2022-08-19T14:34:29;27.60;99.90
15131;DHT22;7666;50.920;4.628;2022-08-19T14:37:17;27.60;99.90
15131;DHT22;7666;50.920;4.628;2022-08-19T14:40:04;27.50;99.90
15131;DHT22;7666;50.920;4.628;2022-08-19T14:42:50;27.30;99.90
15131;DHT22;7666;50.920;4.628;2022-08-19T14:45:37;27.10;99.90
15131;DHT22;7666;50.920;4.628;2022-08-19T14:48:23;26.80;99.90
15131;DHT22;7666;50.920;4.628;2022-08-19T14:51:09;26.50;99.90
15131;DHT22;7666;50.920;4.628;2022-08-19T14:53:56;26.20;99.90
15131;DHT22;7666;50.920;4.628;2022-08-19T14:56:42;25.80;99.90
15131;DHT22;7666;50.920;4.628;2022-08-19T14:59:28;25.50;99.90
15131;DHT22;7666;50.920;4.628;2022-08-19T15:02:15;25.20;99.90
15131;DHT22;7666;50.920;4.628;2022-08-19T15:05:01;24.90;99.90
15131;DHT22;7666;50.920;4.628;2022-08-19T15:07:47;24.80;99.90
15131;DHT22;7666;50.920;4.628;2022-08-19T15:10:33;24.80;99.90
15131;DHT22;7666;50.920;4.628;2022-08-19T15:13:19;24.80;99.90
15131;DHT22;7666;50.920;4.628;2022-08-19T15:16:05;24.70;99.90
15131;DHT22;7666;50.920;4.628;2022-08-19T15:18:54;24.80;99.90
15131;DHT22;7666;50.920;4.628;2022-08-19T15:21:41;24.80;99.90
15131;DHT22;7666;50.920;4.628;2022-08-19T15:24:27;24.90;99.90
15131;DHT22;7666;50.920;4.628;2022-08-19T15:27:13;24.90;99.90
15131;DHT22;7666;50.920;4.628;2022-08-19T15:29:59;25.00;99.90
15131;DHT22;7666;50.920;4.628;2022-08-19T15:32:45;25.20;99.90
15131;DHT22;7666;50.920;4.628;2022-08-19T15:35:32;25.20;99.90
15131;DHT22;7666;50.920;4.628;2022-08-19T15:38:19;25.20;99.90
15131;DHT22;7666;50.920;4.628;2022-08-19T15:41:16;25.20;99.90
15131;DHT22;7666;50.920;4.628;2022-08-19T15:44:12;25.20;99.90
15131;DHT22;7666;50.920;4.628;2022-08-19T15:46:59;25.20;99.90
15131;DHT22;7666;50.920;4.628;2022-08-19T15:49:45;25.30;99.90
15131;DHT22;7666;50.920;4.628;2022-08-19T15:52:31;25.40;99.90
15131;DHT22;7666;50.920;4.628;2022-08-19T15:55:24;25.50;99.90
15131;DHT22;7666;50.920;4.628;2022-08-19T15:58:12;25.50;99.90
15131;DHT22;7666;50.920;4.628;2022-08-19T16:01:17;25.50;99.90
15131;DHT22;7666;50.920;4.628;2022-08-19T16:04:22;25.70;99.90
15131;DHT22;7666;50.920;4.628;2022-08-19T16:07:26;25.80;99.90
15131;DHT22;7666;50.920;4.628;2022-08-19T16:10:12;25.70;99.90
15131;DHT22;7666;50.920;4.628;2022-08-19T16:12:59;25.60;99.90
15131;DHT22;7666;50.920;4.628;2022-08-19T16:15:45;25.60;99.90
15131;DHT22;7666;50.920;4.628;2022-08-19T16:18:31;25.50;99.90
15131;DHT22;7666;50.920;4.628;2022-08-19T16:21:24;25.40;99.90
15131;DHT22;7666;50.920;4.628;2022-08-19T16:24:14;25.30;99.90
15131;DHT22;7666;50.920;4.628;2022-08-19T16:27:01;25.20;99.90
15131;DHT22;7666;50.920;4.628;2022-08-19T16:29:47;25.20;99.90
15131;DHT22;7666;50.920;4.628;2022-08-19T16:32:33;25.20;99.90
15131;DHT22;7666;50.920;4.628;2022-08-19T16:35:19;25.10;99.90
15131;DHT22;7666;50.920;4.628;2022-08-19T16:38:05;25.00;99.90
15131;DHT22;7666;50.920;4.628;2022-08-19T16:40:51;25.00;99.90
15131;DHT22;7666;50.920;4.628;2022-08-19T16:43:40;24.90;99.90
15131;DHT22;7666;50.920;4.628;2022-08-19T16:46:26;24.90;99.90
15131;DHT22;7666;50.920;4.628;2022-08-19T16:49:13;24.80;99.90
15131;DHT22;7666;50.920;4.628;2022-08-19T16:51:59;24.80;99.90
15131;DHT22;7666;50.920;4.628;2022-08-19T16:54:47;24.70;99.90
15131;DHT22;7666;50.920;4.628;2022-08-19T16:57:34;24.80;99.90
15131;DHT22;7666;50.920;4.628;2022-08-19T17:00:20;24.80;99.90
15131;DHT22;7666;50.920;4.628;2022-08-19T17:03:07;24.70;99.90
15131;DHT22;7666;50.920;4.628;2022-08-19T17:05:57;24.70;99.90
15131;DHT22;7666;50.920;4.628;2022-08-19T17:08:52;24.70;99.90
15131;DHT22;7666;50.920;4.628;2022-08-19T17:11:39;24.70;99.90
15131;DHT22;7666;50.920;4.628;2022-08-19T17:14:24;24.80;99.90
15131;DHT22;7666;50.920;4.628;2022-08-19T17:17:10;24.70;99.90
15131;DHT22;7666;50.920;4.628;2022-08-19T17:19:58;24.60;99.90
15131;DHT22;7666;50.920;4.628;2022-08-19T17:22:45;24.50;99.90
15131;DHT22;7666;50.920;4.628;2022-08-19T17:25:31;24.50;99.90
15131;DHT22;7666;50.920;4.628;2022-08-19T17:28:20;24.50;99.90
15131;DHT22;7666;50.920;4.628;2022-08-19T17:31:06;24.40;99.90
15131;DHT22;7666;50.920;4.628;2022-08-19T17:33:53;24.30;99.90
15131;DHT22;7666;50.920;4.628;2022-08-19T17:36:39;24.30;99.90
15131;DHT22;7666;50.920;4.628;2022-08-19T17:39:25;24.20;99.90
15131;DHT22;7666;50.920;4.628;2022-08-19T17:42:11;24.10;99.90
15131;DHT22;7666;50.920;4.628;2022-08-19T17:44:57;24.00;99.90
15131;DHT22;7666;50.920;4.628;2022-08-19T17:47:44;24.00;99.90
15131;DHT22;7666;50.920;4.628;2022-08-19T17:50:30;23.90;99.90
15131;DHT22;7666;50.920;4.628;2022-08-19T17:53:17;23.90;99.90
15131;DHT22;7666;50.920;4.628;2022-08-19T17:56:03;23.90;99.90
15131;DHT22;7666;50.920;4.628;2022-08-19T17:58:50;23.80;99.90
15131;DHT22;7666;50.920;4.628;2022-08-19T18:01:37;23.80;99.90
15131;DHT22;7666;50.920;4.628;2022-08-19T18:04:24;23.80;99.90
15131;DHT22;7666;50.920;4.628;2022-08-19T18:07:10;23.70;99.90
15131;DHT22;7666;50.920;4.628;2022-08-19T18:09:56;23.70;99.90
15131;DHT22;7666;50.920;4.628;2022-08-19T18:12:43;23.60;99.90
15131;DHT22;7666;50.920;4.628;2022-08-19T18:15:29;23.40;99.90
15131;DHT22;7666;50.920;4.628;2022-08-19T18:18:15;23.20;99.90
15131;DHT22;7666;50.920;4.628;2022-08-19T18:21:01;23.00;99.90
15131;DHT22;7666;50.920;4.628;2022-08-19T18:23:47;22.90;99.90
15131;DHT22;7666;50.920;4.628;2022-08-19T18:26:33;22.70;99.90
15131;DHT22;7666;50.920;4.628;2022-08-19T18:29:19;22.60;99.90
15131;DHT22;7666;50.920;4.628;2022-08-19T18:32:06;22.50;99.90
15131;DHT22;7666;50.920;4.628;2022-08-19T18:35:04;22.40;99.90
15131;DHT22;7666;50.920;4.628;2022-08-19T18:37:51;22.30;99.90
15131;DHT22;7666;50.920;4.628;2022-08-19T18:40:37;22.20;99.90
15131;DHT22;7666;50.920;4.628;2022-08-19T18:43:41;22.10;99.90
15131;DHT22;7666;50.920;4.628;2022-08-19T18:46:45;22.00;99.90
15131;DHT22;7666;50.920;4.628;2022-08-19T18:49:50;22.00;99.90
15131;DHT22;7666;50.920;4.628;2022-08-19T18:52:36;21.90;99.90
15131;DHT22;7666;50.920;4.628;2022-08-19T18:55:22;21.80;99.90
15131;DHT22;7666;50.920;4.628;2022-08-19T18:58:08;21.80;99.90
15131;DHT22;7666;50.920;4.628;2022-08-19T19:00:55;21.80;99.90
15131;DHT22;7666;50.920;4.628;2022-08-19T19:03:44;21.80;99.90
15131;DHT22;7666;50.920;4.628;2022-08-19T19:06:33;21.80;99.90
15131;DHT22;7666;50.920;4.628;2022-08-19T19:09:23;21.80;99.90
15131;DHT22;7666;50.920;4.628;2022-08-19T19:12:10;21.80;99.90
15131;DHT22;7666;50.920;4.628;2022-08-19T19:14:56;21.80;99.90
15131;DHT22;7666;50.920;4.628;2022-08-19T19:17:43;21.70;99.90
15131;DHT22;7666;50.920;4.628;2022-08-19T19:20:29;21.60;99.90
15131;DHT22;7666;50.920;4.628;2022-08-19T19:23:15;21.70;99.90
15131;DHT22;7666;50.920;4.628;2022-08-19T19:26:01;21.70;99.90
15131;DHT22;7666;50.920;4.628;2022-08-19T19:28:48;21.70;99.90
15131;DHT22;7666;50.920;4.628;2022-08-19T19:31:36;21.70;99.90
15131;DHT22;7666;50.920;4.628;2022-08-19T19:34:22;21.70;99.90
15131;DHT22;7666;50.920;4.628;2022-08-19T19:37:08;21.70;99.90
15131;DHT22;7666;50.920;4.628;2022-08-19T19:39:54;21.80;99.90
15131;DHT22;7666;50.920;4.628;2022-08-19T19:42:40;21.80;99.90
15131;DHT22;7666;50.920;4.628;2022-08-19T19:45:26;21.70;99.90
15131;DHT22;7666;50.920;4.628;2022-08-19T19:48:14;21.60;99.90
15131;DHT22;7666;50.920;4.628;2022-08-19T19:51:02;21.60;99.90
15131;DHT22;7666;50.920;4.628;2022-08-19T19:53:49;21.50;99.90
15131;DHT22;7666;50.920;4.628;2022-08-19T19:56:35;21.40;99.90
15131;DHT22;7666;50.920;4.628;2022-08-19T19:59:21;21.40;99.90
15131;DHT22;7666;50.920;4.628;2022-08-19T20:02:07;21.40;99.90
15131;DHT22;7666;50.920;4.628;2022-08-19T20:04:53;21.40;99.90
15131;DHT22;7666;50.920;4.628;2022-08-19T20:07:43;21.50;99.90
15131;DHT22;7666;50.920;4.628;2022-08-19T20:10:48;21.50;99.90
15131;DHT22;7666;50.920;4.628;2022-08-19T20:13:34;21.50;99.90
15131;DHT22;7666;50.920;4.628;2022-08-19T20:16:20;21.50;99.90
15131;DHT22;7666;50.920;4.628;2022-08-19T20:19:08;21.50;99.90
15131;DHT22;7666;50.920;4.628;2022-08-19T20:21:54;21.50;99.90
15131;DHT22;7666;50.920;4.628;2022-08-19T20:24:41;21.50;99.90
15131;DHT22;7666;50.920;4.628;2022-08-19T20:27:29;21.50;99.90
15131;DHT22;7666;50.920;4.628;2022-08-19T20:30:19;21.50;99.90
15131;DHT22;7666;50.920;4.628;2022-08-19T20:33:06;21.40;99.90
15131;DHT22;7666;50.920;4.628;2022-08-19T20:35:52;21.40;99.90
15131;DHT22;7666;50.920;4.628;2022-08-19T20:38:38;21.40;99.90
15131;DHT22;7666;50.920;4.628;2022-08-19T20:41:24;21.40;99.90
15131;DHT22;7666;50.920;4.628;2022-08-19T20:44:10;21.40;99.90
15131;DHT22;7666;50.920;4.628;2022-08-19T20:46:56;21.30;99.90
15131;DHT22;7666;50.920;4.628;2022-08-19T20:49:42;21.30;99.90
15131;DHT22;7666;50.920;4.628;2022-08-19T20:52:28;21.20;99.90
15131;DHT22;7666;50.920;4.628;2022-08-19T20:55:14;21.20;99.90
15131;DHT22;7666;50.920;4.628;2022-08-19T20:58:00;21.20;99.90
15131;DHT22;7666;50.920;4.628;2022-08-19T21:00:48;21.20;99.90
15131;DHT22;7666;50.920;4.628;2022-08-19T21:03:37;21.30;99.90
15131;DHT22;7666;50.920;4.628;2022-08-19T21:06:26;21.20;99.90
15131;DHT22;7666;50.920;4.628;2022-08-19T21:09:12;21.20;99.90
15131;DHT22;7666;50.920;4.628;2022-08-19T21:11:58;21.10;99.90
15131;DHT22;7666;50.920;4.628;2022-08-19T21:14:44;21.10;99.90
15131;DHT22;7666;50.920;4.628;2022-08-19T21:17:31;21.00;99.90
15131;DHT22;7666;50.920;4.628;2022-08-19T21:20:17;21.00;99.90
15131;DHT22;7666;50.920;4.628;2022-08-19T21:23:11;21.00;99.90
15131;DHT22;7666;50.920;4.628;2022-08-19T21:25:58;21.00;99.90
15131;DHT22;7666;50.920;4.628;2022-08-19T21:28:44;21.00;99.90
15131;DHT22;7666;50.920;4.628;2022-08-19T21:31:30;21.00;99.90
15131;DHT22;7666;50.920;4.628;2022-08-19T21:34:17;21.00;99.90
15131;DHT22;7666;50.920;4.628;2022-08-19T21:37:04;21.00;99.90
15131;DHT22;7666;50.920;4.628;2022-08-19T21:39:50;21.00;99.90
15131;DHT22;7666;50.920;4.628;2022-08-19T21:42:36;21.00;99.90
15131;DHT22;7666;50.920;4.628;2022-08-19T21:45:22;21.00;99.90
15131;DHT22;7666;50.920;4.628;2022-08-19T21:48:08;21.00;99.90
15131;DHT22;7666;50.920;4.628;2022-08-19T21:50:55;20.90;99.90
15131;DHT22;7666;50.920;4.628;2022-08-19T21:53:41;20.90;99.90
15131;DHT22;7666;50.920;4.628;2022-08-19T21:56:27;20.80;99.90
15131;DHT22;7666;50.920;4.628;2022-08-19T21:59:13;20.80;99.90
15131;DHT22;7666;50.920;4.628;2022-08-19T22:01:59;20.70;99.90
15131;DHT22;7666;50.920;4.628;2022-08-19T22:04:46;20.70;99.90
15131;DHT22;7666;50.920;4.628;2022-08-19T22:07:33;20.70;99.90
15131;DHT22;7666;50.920;4.628;2022-08-19T22:10:19;20.80;99.90
15131;DHT22;7666;50.920;4.628;2022-08-19T22:13:06;20.80;99.90
15131;DHT22;7666;50.920;4.628;2022-08-19T22:15:54;20.80;99.90
15131;DHT22;7666;50.920;4.628;2022-08-19T22:18:40;20.80;99.90
15131;DHT22;7666;50.920;4.628;2022-08-19T22:21:26;20.80;99.90
15131;DHT22;7666;50.920;4.628;2022-08-19T22:24:12;20.80;99.90
15131;DHT22;7666;50.920;4.628;2022-08-19T22:26:57;20.70;99.90
15131;DHT22;7666;50.920;4.628;2022-08-19T22:29:45;20.70;99.90
15131;DHT22;7666;50.920;4.628;2022-08-19T22:32:31;20.70;99.90
15131;DHT22;7666;50.920;4.628;2022-08-19T22:35:20;20.60;99.90
15131;DHT22;7666;50.920;4.628;2022-08-19T22:38:08;20.60;99.90
15131;DHT22;7666;50.920;4.628;2022-08-19T22:40:54;20.60;99.90
15131;DHT22;7666;50.920;4.628;2022-08-19T22:43:41;20.60;99.90
15131;DHT22;7666;50.920;4.628;2022-08-19T22:46:27;20.60;99.90
15131;DHT22;7666;50.920;4.628;2022-08-19T22:49:13;20.50;99.90
15131;DHT22;7666;50.920;4.628;2022-08-19T22:51:59;20.50;99.90
15131;DHT22;7666;50.920;4.628;2022-08-19T22:55:04;20.40;99.90
15131;DHT22;7666;50.920;4.628;2022-08-19T22:57:51;20.40;99.90
15131;DHT22;7666;50.920;4.628;2022-08-19T23:00:38;20.30;99.90
15131;DHT22;7666;50.920;4.628;2022-08-19T23:03:24;20.30;99.90
15131;DHT22;7666;50.920;4.628;2022-08-19T23:06:11;20.30;99.90
15131;DHT22;7666;50.920;4.628;2022-08-19T23:08:58;20.20;99.90
15131;DHT22;7666;50.920;4.628;2022-08-19T23:11:45;20.10;99.90
15131;DHT22;7666;50.920;4.628;2022-08-19T23:14:31;20.10;99.90
15131;DHT22;7666;50.920;4.628;2022-08-19T23:17:18;20.00;99.90
15131;DHT22;7666;50.920;4.628;2022-08-19T23:20:06;20.00;99.90
15131;DHT22;7666;50.920;4.628;2022-08-19T23:22:54;20.00;99.90
15131;DHT22;7666;50.920;4.628;2022-08-19T23:25:40;20.10;99.90
15131;DHT22;7666;50.920;4.628;2022-08-19T23:28:26;20.10;99.90
15131;DHT22;7666;50.920;4.628;2022-08-19T23:31:31;20.00;99.90
15131;DHT22;7666;50.920;4.628;2022-08-19T23:34:17;20.00;99.90
15131;DHT22;7666;50.920;4.628;2022-08-19T23:37:03;20.00;99.90
15131;DHT22;7666;50.920;4.628;2022-08-19T23:39:49;19.90;99.90
15131;DHT22;7666;50.920;4.628;2022-08-19T23:42:39;19.90;99.90